sensor_id;sensor_type;location;lat;lon;timestamp;temperature;humidity
33460;DHT22;19795;53.160;6.612;2022-11-20T06:32:42;0.00;99.90
33460;DHT22;19795;53.160;6.612;2022-11-20T06:37:43;-0.10;99.90
33460;DHT22;19795;53.160;6.612;2022-11-20T06:40:09;-0.10;99.90
33460;DHT22;19795;53.160;6.612;2022-11-20T06:42:35;-0.10;99.90
33460;DHT22;19795;53.160;6.612;2022-11-20T06:45:00;0.00;99.90
33460;DHT22;19795;53.160;6.612;2022-11-20T06:47:26;0.00;99.90
33460;DHT22;19795;53.160;6.612;2022-11-20T06:49:52;0.00;99.90
33460;DHT22;19795;53.160;6.612;2022-11-20T06:52:17;0.00;99.90
33460;DHT22;19795;53.160;6.612;2022-11-20T06:54:44;0.00;99.90
33460;DHT22;19795;53.160;6.612;2022-11-20T06:57:10;0.00;99.90
33460;DHT22;19795;53.160;6.612;2022-11-20T06:59:35;0.00;99.90
33460;DHT22;19795;53.160;6.612;2022-11-20T07:02:01;0.10;99.90
33460;DHT22;19795;53.160;6.612;2022-11-20T07:04:26;0.10;99.90
33460;DHT22;19795;53.160;6.612;2022-11-20T07:06:52;0.10;99.90
33460;DHT22;19795;53.160;6.612;2022-11-20T07:09:17;0.10;99.90
33460;DHT22;19795;53.160;6.612;2022-11-20T07:11:45;0.10;99.90
33460;DHT22;19795;53.160;6.612;2022-11-20T07:14:11;0.10;99.90
33460;DHT22;19795;53.160;6.612;2022-11-20T07:16:37;0.10;99.90
33460;DHT22;19795;53.160;6.612;2022-11-20T07:19:02;0.10;99.90
33460;DHT22;19795;53.160;6.612;2022-11-20T07:21:28;0.20;99.90
33460;DHT22;19795;53.160;6.612;2022-11-20T07:23:54;0.20;99.90
33460;DHT22;19795;53.160;6.612;2022-11-20T07:26:20;0.20;99.90
33460;DHT22;19795;53.160;6.612;2022-11-20T07:28:45;0.20;99.90
33460;DHT22;19795;53.160;6.612;2022-11-20T07:31:11;0.20;99.90
33460;DHT22;19795;53.160;6.612;2022-11-20T07:33:38;0.30;99.90
33460;DHT22;19795;53.160;6.612;2022-11-20T07:36:04;0.30;99.90
33460;DHT22;19795;53.160;6.612;2022-11-20T07:38:30;0.30;99.90
33460;DHT22;19795;53.160;6.612;2022-11-20T07:40:56;0.40;99.90
33460;DHT22;19795;53.160;6.612;2022-11-20T07:43:27;0.40;99.90
33460;DHT22;19795;53.160;6.612;2022-11-20T07:45:55;0.50;99.90
33460;DHT22;19795;53.160;6.612;2022-11-20T07:48:22;0.50;99.90
33460;DHT22;19795;53.160;6.612;2022-11-20T07:50:47;0.50;99.90
33460;DHT22;19795;53.160;6.612;2022-11-20T07:53:13;0.50;99.90
33460;DHT22;19795;53.160;6.612;2022-11-20T07:55:39;0.60;99.90
33460;DHT22;19795;53.160;6.612;2022-11-20T07:58:05;0.60;99.90
33460;DHT22;19795;53.160;6.612;2022-11-20T08:00:31;0.60;99.90
33460;DHT22;19795;53.160;6.612;2022-11-20T08:02:56;0.80;99.90
33460;DHT22;19795;53.160;6.612;2022-11-20T08:05:22;0.70;99.90
33460;DHT22;19795;53.160;6.612;2022-11-20T08:07:48;0.80;99.90
33460;DHT22;19795;53.160;6.612;2022-11-20T08:10:15;0.70;99.90
33460;DHT22;19795;53.160;6.612;2022-11-20T08:12:52;0.70;99.90
33460;DHT22;19795;53.160;6.612;2022-11-20T08:15:38;0.70;99.90
33460;DHT22;19795;53.160;6.612;2022-11-20T08:18:09;0.70;99.90
33460;DHT22;19795;53.160;6.612;2022-11-20T08:20:36;0.80;99.90
33460;DHT22;19795;53.160;6.612;2022-11-20T08:23:04;0.80;99.90
33460;DHT22;19795;53.160;6.612;2022-11-20T08:25:32;0.80;99.90
33460;DHT22;19795;53.160;6.612;2022-11-20T08:28:02;0.80;99.90
33460;DHT22;19795;53.160;6.612;2022-11-20T08:30:29;0.90;99.90
33460;DHT22;19795;53.160;6.612;2022-11-20T08:33:01;0.80;99.90
33460;DHT22;19795;53.160;6.612;2022-11-20T08:35:27;0.80;99.90
33460;DHT22;19795;53.160;6.612;2022-11-20T08:37:58;0.80;99.90
33460;DHT22;19795;53.160;6.612;2022-11-20T08:40:24;0.80;99.90
33460;DHT22;19795;53.160;6.612;2022-11-20T08:42:50;0.80;99.90
33460;DHT22;19795;53.160;6.612;2022-11-20T08:45:17;0.90;99.90
33460;DHT22;19795;53.160;6.612;2022-11-20T08:47:44;0.90;99.90
33460;DHT22;19795;53.160;6.612;2022-11-20T08:50:11;0.90;99.90
33460;DHT22;19795;53.160;6.612;2022-11-20T08:52:37;1.00;99.90
33460;DHT22;19795;53.160;6.612;2022-11-20T08:55:04;1.00;99.90
33460;DHT22;19795;53.160;6.612;2022-11-20T08:57:34;1.10;99.90
33460;DHT22;19795;53.160;6.612;2022-11-20T09:00:00;1.20;99.90
33460;DHT22;19795;53.160;6.612;2022-11-20T09:02:26;1.20;99.90
33460;DHT22;19795;53.160;6.612;2022-11-20T09:04:51;1.20;99.90
33460;DHT22;19795;53.160;6.612;2022-11-20T09:07:18;1.20;99.90
33460;DHT22;19795;53.160;6.612;2022-11-20T09:09:44;1.10;99.90
33460;DHT22;19795;53.160;6.612;2022-11-20T09:12:10;1.30;99.90
33460;DHT22;19795;53.160;6.612;2022-11-20T09:14:35;1.30;99.90
33460;DHT22;19795;53.160;6.612;2022-11-20T09:17:01;1.30;99.90
33460;DHT22;19795;53.160;6.612;2022-11-20T09:19:27;1.30;99.90
33460;DHT22;19795;53.160;6.612;2022-11-20T09:21:52;1.40;99.90
33460;DHT22;19795;53.160;6.612;2022-11-20T09:24:19;1.40;99.90
33460;DHT22;19795;53.160;6.612;2022-11-20T09:26:46;1.40;99.90
33460;DHT22;19795;53.160;6.612;2022-11-20T09:29:12;1.40;99.90
33460;DHT22;19795;53.160;6.612;2022-11-20T09:31:37;1.30;99.90
33460;DHT22;19795;53.160;6.612;2022-11-20T09:34:03;1.40;99.90
33460;DHT22;19795;53.160;6.612;2022-11-20T09:36:29;1.40;99.90
33460;DHT22;19795;53.160;6.612;2022-11-20T09:38:54;1.30;99.90
33460;DHT22;19795;53.160;6.612;2022-11-20T09:51:59;1.60;99.90
33460;DHT22;19795;53.160;6.612;2022-11-20T09:54:31;1.60;99.90
33460;DHT22;19795;53.160;6.612;2022-11-20T09:56:59;1.60;99.90
33460;DHT22;19795;53.160;6.612;2022-11-20T09:59:33;1.70;99.90
33460;DHT22;19795;53.160;6.612;2022-11-20T10:02:02;1.70;99.90
33460;DHT22;19795;53.160;6.612;2022-11-20T10:04:33;1.70;99.90
33460;DHT22;19795;53.160;6.612;2022-11-20T10:07:11;1.70;99.90
33460;DHT22;19795;53.160;6.612;2022-11-20T10:09:40;1.70;99.90
33460;DHT22;19795;53.160;6.612;2022-11-20T10:12:20;1.70;99.90
33460;DHT22;19795;53.160;6.612;2022-11-20T10:30:44;1.70;99.90
33460;DHT22;19795;53.160;6.612;2022-11-20T10:33:23;1.80;99.90
33460;DHT22;19795;53.160;6.612;2022-11-20T10:36:22;1.70;99.90
33460;DHT22;19795;53.160;6.612;2022-11-20T10:39:00;1.60;99.90
33460;DHT22;19795;53.160;6.612;2022-11-20T10:41:32;1.80;99.90
33460;DHT22;19795;53.160;6.612;2022-11-20T10:44:03;2.00;99.90
33460;DHT22;19795;53.160;6.612;2022-11-20T10:46:45;2.20;99.90
33460;DHT22;19795;53.160;6.612;2022-11-20T10:49:20;2.10;99.90
33460;DHT22;19795;53.160;6.612;2022-11-20T10:54:49;2.50;99.90
33460;DHT22;19795;53.160;6.612;2022-11-20T11:00:07;2.60;99.90
33460;DHT22;19795;53.160;6.612;2022-11-20T11:02:39;2.70;99.90
33460;DHT22;19795;53.160;6.612;2022-11-20T11:05:22;2.80;99.90
33460;DHT22;19795;53.160;6.612;2022-11-20T11:07:54;2.80;99.90
33460;DHT22;19795;53.160;6.612;2022-11-20T11:10:26;2.80;99.90
33460;DHT22;19795;53.160;6.612;2022-11-20T11:12:53;2.60;99.90
33460;DHT22;19795;53.160;6.612;2022-11-20T11:15:40;2.50;99.90
33460;DHT22;19795;53.160;6.612;2022-11-20T11:18:23;2.50;99.90
33460;DHT22;19795;53.160;6.612;2022-11-20T11:20:50;2.50;99.90
33460;DHT22;19795;53.160;6.612;2022-11-20T11:23:36;2.50;99.90
33460;DHT22;19795;53.160;6.612;2022-11-20T11:26:05;2.50;99.90
33460;DHT22;19795;53.160;6.612;2022-11-20T11:28:31;2.50;99.90
33460;DHT22;19795;53.160;6.612;2022-11-20T11:30:57;2.60;99.90
33460;DHT22;19795;53.160;6.612;2022-11-20T11:33:27;2.60;99.90
33460;DHT22;19795;53.160;6.612;2022-11-20T11:36:01;2.70;99.90
33460;DHT22;19795;53.160;6.612;2022-11-20T11:41:04;2.70;99.90
33460;DHT22;19795;53.160;6.612;2022-11-20T11:43:35;2.60;99.90
33460;DHT22;19795;53.160;6.612;2022-11-20T11:49:17;2.60;99.90
33460;DHT22;19795;53.160;6.612;2022-11-20T11:52:08;2.70;99.90
33460;DHT22;19795;53.160;6.612;2022-11-20T12:00:01;2.60;99.90
33460;DHT22;19795;53.160;6.612;2022-11-20T12:04:58;2.50;99.90
33460;DHT22;19795;53.160;6.612;2022-11-20T12:07:41;2.50;99.90
33460;DHT22;19795;53.160;6.612;2022-11-20T12:10:24;2.60;99.90
33460;DHT22;19795;53.160;6.612;2022-11-20T12:13:14;2.70;99.90
33460;DHT22;19795;53.160;6.612;2022-11-20T12:15:44;2.80;99.90
33460;DHT22;19795;53.160;6.612;2022-11-20T12:18:16;2.90;99.90
33460;DHT22;19795;53.160;6.612;2022-11-20T12:21:01;3.10;99.90
33460;DHT22;19795;53.160;6.612;2022-11-20T12:37:37;3.50;99.90
33460;DHT22;19795;53.160;6.612;2022-11-20T12:40:33;3.50;99.90
33460;DHT22;19795;53.160;6.612;2022-11-20T12:43:20;3.60;99.90
33460;DHT22;19795;53.160;6.612;2022-11-20T12:46:10;3.60;99.90
33460;DHT22;19795;53.160;6.612;2022-11-20T12:49:37;3.60;99.90
33460;DHT22;19795;53.160;6.612;2022-11-20T12:57:21;3.20;99.90
33460;DHT22;19795;53.160;6.612;2022-11-20T13:00:06;3.20;99.90
33460;DHT22;19795;53.160;6.612;2022-11-20T13:07:46;3.10;99.90
33460;DHT22;19795;53.160;6.612;2022-11-20T13:10:28;3.20;99.90
33460;DHT22;19795;53.160;6.612;2022-11-20T13:15:42;3.40;99.90
33460;DHT22;19795;53.160;6.612;2022-11-20T13:18:11;3.40;99.90
33460;DHT22;19795;53.160;6.612;2022-11-20T13:20:46;3.50;99.90
33460;DHT22;19795;53.160;6.612;2022-11-20T13:23:27;3.50;99.90
33460;DHT22;19795;53.160;6.612;2022-11-20T13:26:15;3.40;99.90
33460;DHT22;19795;53.160;6.612;2022-11-20T13:28:42;3.40;99.90
33460;DHT22;19795;53.160;6.612;2022-11-20T13:33:55;3.40;99.90
33460;DHT22;19795;53.160;6.612;2022-11-20T13:36:24;3.40;99.90
33460;DHT22;19795;53.160;6.612;2022-11-20T13:38:52;3.30;99.90
33460;DHT22;19795;53.160;6.612;2022-11-20T13:44:25;3.40;99.90
33460;DHT22;19795;53.160;6.612;2022-11-20T13:46:52;3.40;99.90
33460;DHT22;19795;53.160;6.612;2022-11-20T13:49:27;3.20;99.90
33460;DHT22;19795;53.160;6.612;2022-11-20T13:52:26;3.20;99.90
33460;DHT22;19795;53.160;6.612;2022-11-20T13:55:16;3.20;99.90
33460;DHT22;19795;53.160;6.612;2022-11-20T14:00:20;3.20;99.90
33460;DHT22;19795;53.160;6.612;2022-11-20T14:03:20;3.10;99.90
33460;DHT22;19795;53.160;6.612;2022-11-20T14:05:51;3.10;99.90
33460;DHT22;19795;53.160;6.612;2022-11-20T14:08:30;3.10;99.90
33460;DHT22;19795;53.160;6.612;2022-11-20T14:11:06;3.10;99.90
33460;DHT22;19795;53.160;6.612;2022-11-20T14:13:37;3.10;99.90
33460;DHT22;19795;53.160;6.612;2022-11-20T14:16:03;3.10;99.90
33460;DHT22;19795;53.160;6.612;2022-11-20T14:18:29;3.20;99.90
33460;DHT22;19795;53.160;6.612;2022-11-20T14:20:54;3.10;99.90
33460;DHT22;19795;53.160;6.612;2022-11-20T14:23:28;3.00;99.90
33460;DHT22;19795;53.160;6.612;2022-11-20T14:25:54;2.90;99.90
33460;DHT22;19795;53.160;6.612;2022-11-20T14:28:25;2.90;99.90
33460;DHT22;19795;53.160;6.612;2022-11-20T14:30:52;3.10;99.90
33460;DHT22;19795;53.160;6.612;2022-11-20T14:33:18;2.80;99.90
33460;DHT22;19795;53.160;6.612;2022-11-20T14:35:50;2.70;99.90
33460;DHT22;19795;53.160;6.612;2022-11-20T14:38:17;2.70;99.90
33460;DHT22;19795;53.160;6.612;2022-11-20T14:40:44;2.60;99.90
33460;DHT22;19795;53.160;6.612;2022-11-20T14:43:36;2.50;99.90
33460;DHT22;19795;53.160;6.612;2022-11-20T14:46:05;2.40;99.90
33460;DHT22;19795;53.160;6.612;2022-11-20T14:49:00;2.30;99.90
33460;DHT22;19795;53.160;6.612;2022-11-20T14:51:37;2.30;99.90
33460;DHT22;19795;53.160;6.612;2022-11-20T14:54:16;2.20;99.90
33460;DHT22;19795;53.160;6.612;2022-11-20T14:56:56;2.10;99.90
33460;DHT22;19795;53.160;6.612;2022-11-20T14:59:27;2.10;99.90
33460;DHT22;19795;53.160;6.612;2022-11-20T15:02:03;2.10;99.90
33460;DHT22;19795;53.160;6.612;2022-11-20T15:04:29;2.00;99.90
33460;DHT22;19795;53.160;6.612;2022-11-20T15:06:57;2.00;99.90
33460;DHT22;19795;53.160;6.612;2022-11-20T15:09:23;2.00;99.90
33460;DHT22;19795;53.160;6.612;2022-11-20T15:11:55;1.90;99.90
33460;DHT22;19795;53.160;6.612;2022-11-20T15:14:21;1.80;99.90
33460;DHT22;19795;53.160;6.612;2022-11-20T15:16:48;1.90;99.90
33460;DHT22;19795;53.160;6.612;2022-11-20T15:19:22;1.70;99.90
33460;DHT22;19795;53.160;6.612;2022-11-20T15:21:48;1.70;99.90
33460;DHT22;19795;53.160;6.612;2022-11-20T15:24:15;2.00;99.90
33460;DHT22;19795;53.160;6.612;2022-11-20T15:26:41;1.60;99.90
33460;DHT22;19795;53.160;6.612;2022-11-20T15:29:11;1.60;99.90
33460;DHT22;19795;53.160;6.612;2022-11-20T15:31:38;1.50;99.90
33460;DHT22;19795;53.160;6.612;2022-11-20T15:34:14;1.50;99.90
33460;DHT22;19795;53.160;6.612;2022-11-20T15:36:41;1.50;99.90
33460;DHT22;19795;53.160;6.612;2022-11-20T15:39:07;1.50;99.90
33460;DHT22;19795;53.160;6.612;2022-11-20T15:41:37;1.50;99.90
33460;DHT22;19795;53.160;6.612;2022-11-20T15:44:04;1.50;99.90
33460;DHT22;19795;53.160;6.612;2022-11-20T15:46:31;1.50;99.90
33460;DHT22;19795;53.160;6.612;2022-11-20T15:49:03;1.50;99.90
33460;DHT22;19795;53.160;6.612;2022-11-20T15:51:31;1.70;99.90
33460;DHT22;19795;53.160;6.612;2022-11-20T15:53:58;1.80;99.90
33460;DHT22;19795;53.160;6.612;2022-11-20T15:56:25;1.50;99.90
33460;DHT22;19795;53.160;6.612;2022-11-20T15:58:50;1.50;99.90
33460;DHT22;19795;53.160;6.612;2022-11-20T16:01:18;1.50;99.90
33460;DHT22;19795;53.160;6.612;2022-11-20T16:03:45;1.50;99.90
33460;DHT22;19795;53.160;6.612;2022-11-20T16:06:10;1.50;99.90
33460;DHT22;19795;53.160;6.612;2022-11-20T16:08:36;1.50;99.90
33460;DHT22;19795;53.160;6.612;2022-11-20T16:11:02;1.70;99.90
33460;DHT22;19795;53.160;6.612;2022-11-20T16:13:31;1.40;99.90
33460;DHT22;19795;53.160;6.612;2022-11-20T16:16:35;1.50;99.90
33460;DHT22;19795;53.160;6.612;2022-11-20T16:19:01;1.40;99.90
33460;DHT22;19795;53.160;6.612;2022-11-20T16:21:27;1.50;99.90
33460;DHT22;19795;53.160;6.612;2022-11-20T16:24:01;1.50;99.90
33460;DHT22;19795;53.160;6.612;2022-11-20T16:26:27;1.40;99.90
33460;DHT22;19795;53.160;6.612;2022-11-20T16:28:53;1.40;99.90
33460;DHT22;19795;53.160;6.612;2022-11-20T16:31:19;1.50;99.90
33460;DHT22;19795;53.160;6.612;2022-11-20T16:33:50;1.70;99.90
33460;DHT22;19795;53.160;6.612;2022-11-20T16:36:17;1.50;99.90
33460;DHT22;19795;53.160;6.612;2022-11-20T16:38:43;1.50;99.90
33460;DHT22;19795;53.160;6.612;2022-11-20T16:41:09;1.50;99.90
33460;DHT22;19795;53.160;6.612;2022-11-20T16:43:59;1.50;99.90
33460;DHT22;19795;53.160;6.612;2022-11-20T16:46:30;1.50;99.90
33460;DHT22;19795;53.160;6.612;2022-11-20T16:49:10;1.50;99.90
33460;DHT22;19795;53.160;6.612;2022-11-20T16:51:36;1.50;99.90
33460;DHT22;19795;53.160;6.612;2022-11-20T16:54:04;1.50;99.90
33460;DHT22;19795;53.160;6.612;2022-11-20T16:56:30;1.40;99.90
33460;DHT22;19795;53.160;6.612;2022-11-20T16:58:57;1.40;99.90
33460;DHT22;19795;53.160;6.612;2022-11-20T17:01:24;1.50;99.90
33460;DHT22;19795;53.160;6.612;2022-11-20T17:04:01;1.40;99.90
33460;DHT22;19795;53.160;6.612;2022-11-20T17:06:35;1.40;99.90
33460;DHT22;19795;53.160;6.612;2022-11-20T17:09:02;1.40;99.90
33460;DHT22;19795;53.160;6.612;2022-11-20T17:11:28;1.50;99.90
33460;DHT22;19795;53.160;6.612;2022-11-20T17:13:55;1.40;99.90
33460;DHT22;19795;53.160;6.612;2022-11-20T17:16:22;1.40;99.90
33460;DHT22;19795;53.160;6.612;2022-11-20T17:18:49;1.40;99.90
33460;DHT22;19795;53.160;6.612;2022-11-20T17:21:16;1.40;99.90
33460;DHT22;19795;53.160;6.612;2022-11-20T17:23:43;1.40;99.90
33460;DHT22;19795;53.160;6.612;2022-11-20T17:28:37;1.40;99.90
33460;DHT22;19795;53.160;6.612;2022-11-20T17:31:11;1.50;99.90
33460;DHT22;19795;53.160;6.612;2022-11-20T17:33:38;1.40;99.90
33460;DHT22;19795;53.160;6.612;2022-11-20T17:36:06;1.40;99.90
33460;DHT22;19795;53.160;6.612;2022-11-20T17:38:32;1.40;99.90
33460;DHT22;19795;53.160;6.612;2022-11-20T17:41:07;1.40;99.90
33460;DHT22;19795;53.160;6.612;2022-11-20T17:43:33;1.40;99.90
33460;DHT22;19795;53.160;6.612;2022-11-20T17:46:06;1.40;99.90
33460;DHT22;19795;53.160;6.612;2022-11-20T17:48:33;1.80;99.90
33460;DHT22;19795;53.160;6.612;2022-11-20T17:51:00;1.50;99.90
33460;DHT22;19795;53.160;6.612;2022-11-20T17:53:28;1.40;99.90
33460;DHT22;19795;53.160;6.612;2022-11-20T17:55:55;1.40;99.90
33460;DHT22;19795;53.160;6.612;2022-11-20T17:58:39;1.40;99.90
33460;DHT22;19795;53.160;6.612;2022-11-20T18:01:05;1.30;99.90
33460;DHT22;19795;53.160;6.612;2022-11-20T18:03:31;1.30;99.90
33460;DHT22;19795;53.160;6.612;2022-11-20T18:05:57;1.30;99.90
33460;DHT22;19795;53.160;6.612;2022-11-20T18:08:22;1.50;99.90
33460;DHT22;19795;53.160;6.612;2022-11-20T18:10:48;1.30;99.90
33460;DHT22;19795;53.160;6.612;2022-11-20T18:13:14;1.30;99.90
33460;DHT22;19795;53.160;6.612;2022-11-20T18:15:39;1.30;99.90
33460;DHT22;19795;53.160;6.612;2022-11-20T18:18:05;1.30;99.90
33460;DHT22;19795;53.160;6.612;2022-11-20T18:20:31;1.30;99.90
33460;DHT22;19795;53.160;6.612;2022-11-20T18:22:56;1.30;99.90
33460;DHT22;19795;53.160;6.612;2022-11-20T18:25:22;1.30;99.90
33460;DHT22;19795;53.160;6.612;2022-11-20T18:27:47;1.30;99.90
33460;DHT22;19795;53.160;6.612;2022-11-20T18:30:14;1.50;99.90
33460;DHT22;19795;53.160;6.612;2022-11-20T18:32:39;1.30;99.90
33460;DHT22;19795;53.160;6.612;2022-11-20T18:35:05;1.30;99.90
33460;DHT22;19795;53.160;6.612;2022-11-20T18:37:31;1.30;99.90
33460;DHT22;19795;53.160;6.612;2022-11-20T18:39:57;1.30;99.90
33460;DHT22;19795;53.160;6.612;2022-11-20T18:42:22;1.30;99.90
33460;DHT22;19795;53.160;6.612;2022-11-20T18:45:07;1.30;99.90
33460;DHT22;19795;53.160;6.612;2022-11-20T18:47:35;1.30;99.90
33460;DHT22;19795;53.160;6.612;2022-11-20T18:50:03;1.30;99.90
33460;DHT22;19795;53.160;6.612;2022-11-20T18:52:36;1.20;99.90
33460;DHT22;19795;53.160;6.612;2022-11-20T18:55:03;1.20;99.90
33460;DHT22;19795;53.160;6.612;2022-11-20T18:57:30;1.20;99.90
33460;DHT22;19795;53.160;6.612;2022-11-20T18:59:56;1.20;99.90
33460;DHT22;19795;53.160;6.612;2022-11-20T19:02:26;1.40;99.90
33460;DHT22;19795;53.160;6.612;2022-11-20T19:04:53;1.20;99.90
33460;DHT22;19795;53.160;6.612;2022-11-20T19:07:20;1.20;99.90
33460;DHT22;19795;53.160;6.612;2022-11-20T19:09:51;1.20;99.90
33460;DHT22;19795;53.160;6.612;2022-11-20T19:12:17;1.20;99.90
33460;DHT22;19795;53.160;6.612;2022-11-20T19:14:43;1.30;99.90
33460;DHT22;19795;53.160;6.612;2022-11-20T19:17:09;1.30;99.90
33460;DHT22;19795;53.160;6.612;2022-11-20T19:19:38;1.40;99.90
33460;DHT22;19795;53.160;6.612;2022-11-20T19:22:04;1.20;99.90
33460;DHT22;19795;53.160;6.612;2022-11-20T19:24:30;1.40;99.90
33460;DHT22;19795;53.160;6.612;2022-11-20T19:26:55;1.20;99.90
33460;DHT22;19795;53.160;6.612;2022-11-20T19:29:23;1.20;99.90
33460;DHT22;19795;53.160;6.612;2022-11-20T19:31:48;1.20;99.90
33460;DHT22;19795;53.160;6.612;2022-11-20T19:34:15;1.20;99.90
33460;DHT22;19795;53.160;6.612;2022-11-20T19:36:42;1.20;99.90
33460;DHT22;19795;53.160;6.612;2022-11-20T19:39:09;1.20;99.90
33460;DHT22;19795;53.160;6.612;2022-11-20T19:41:37;1.20;99.90
33460;DHT22;19795;53.160;6.612;2022-11-20T19:44:11;1.20;99.90
33460;DHT22;19795;53.160;6.612;2022-11-20T19:46:39;1.20;99.90
33460;DHT22;19795;53.160;6.612;2022-11-20T19:49:06;1.20;99.90
33460;DHT22;19795;53.160;6.612;2022-11-20T19:51:35;1.20;99.90
33460;DHT22;19795;53.160;6.612;2022-11-20T19:54:02;1.20;99.90
33460;DHT22;19795;53.160;6.612;2022-11-20T19:56:29;1.20;99.90
33460;DHT22;19795;53.160;6.612;2022-11-20T19:58:56;1.20;99.90
33460;DHT22;19795;53.160;6.612;2022-11-20T20:01:24;1.20;99.90
33460;DHT22;19795;53.160;6.612;2022-11-20T20:03:51;1.20;99.90
33460;DHT22;19795;53.160;6.612;2022-11-20T20:06:19;1.20;99.90
33460;DHT22;19795;53.160;6.612;2022-11-20T20:08:46;1.20;99.90
33460;DHT22;19795;53.160;6.612;2022-11-20T20:11:12;1.20;99.90
33460;DHT22;19795;53.160;6.612;2022-11-20T20:13:38;1.20;99.90
33460;DHT22;19795;53.160;6.612;2022-11-20T20:16:08;1.20;99.90
33460;DHT22;19795;53.160;6.612;2022-11-20T20:18:34;1.20;99.90
33460;DHT22;19795;53.160;6.612;2022-11-20T20:21:11;1.30;99.90
33460;DHT22;19795;53.160;6.612;2022-11-20T20:23:37;1.20;99.90
33460;DHT22;19795;53.160;6.612;2022-11-20T20:26:04;1.20;99.90
33460;DHT22;19795;53.160;6.612;2022-11-20T20:28:30;1.20;99.90
33460;DHT22;19795;53.160;6.612;2022-11-20T20:30:57;1.20;99.90
33460;DHT22;19795;53.160;6.612;2022-11-20T20:33:29;1.20;99.90
33460;DHT22;19795;53.160;6.612;2022-11-20T20:35:55;1.20;99.90
33460;DHT22;19795;53.160;6.612;2022-11-20T20:38:22;1.10;99.90
33460;DHT22;19795;53.160;6.612;2022-11-20T20:40:48;1.20;99.90
33460;DHT22;19795;53.160;6.612;2022-11-20T20:43:14;1.20;99.90
33460;DHT22;19795;53.160;6.612;2022-11-20T20:45:48;1.20;99.90
33460;DHT22;19795;53.160;6.612;2022-11-20T20:48:18;1.20;99.90
33460;DHT22;19795;53.160;6.612;2022-11-20T20:50:59;1.20;99.90
33460;DHT22;19795;53.160;6.612;2022-11-20T20:53:26;1.10;99.90
33460;DHT22;19795;53.160;6.612;2022-11-20T20:56:00;1.10;99.90
33460;DHT22;19795;53.160;6.612;2022-11-20T20:58:28;1.10;99.90
33460;DHT22;19795;53.160;6.612;2022-11-20T21:00:54;1.20;99.90
33460;DHT22;19795;53.160;6.612;2022-11-20T21:03:25;1.20;99.90
33460;DHT22;19795;53.160;6.612;2022-11-20T21:05:55;1.10;99.90
33460;DHT22;19795;53.160;6.612;2022-11-20T21:08:21;1.10;99.90
33460;DHT22;19795;53.160;6.612;2022-11-20T21:10:51;1.10;99.90
33460;DHT22;19795;53.160;6.612;2022-11-20T21:13:21;1.10;99.90
33460;DHT22;19795;53.160;6.612;2022-11-20T21:15:49;1.10;99.90
